Terminal Aerodrome Forecast
Issued by NWS Goodland, KS

Home | Current Version | Previous Version | Text Only | Print | Product List | Glossary On
Versions: 1 2 3 4 5 6 7 8 9 10 11 12 13 14
000
FTUS43 KGLD 271720
TAFGLD
TAF
KGLD 271720Z 2718/2818 17020G30KT P6SM SKC
     FM280100 16014KT P6SM SKC
     FM280900 16010KT 5SM BR SCT020
     FM281300 18015G25KT P6SM SKC=

USA.gov is the U.S. government's official web portal to all federal, state and local government web resources and services.